Time;durP1;ratioP1;P1;durP2;ratioP2;P2;SDS_P1;SDS_P2;PMS_P1;PMS_P2;Temp;Humidity;BMP_temperature;BMP_pressure;BME280_temperature;BME280_humidity;BME280_pressure;Samples;Min_cycle;Max_cycle;Signal;HPM_P1;HPM_P2
2023/06/11 00:00:56;;;;;;;7.00;4.22;;;20.20;99.90;;;;;;5033448;28;20065;-80
2023/06/11 00:03:22;;;;;;;6.82;4.93;;;20.10;99.90;;;;;;5033990;28;20045;-80
2023/06/11 00:05:48;;;;;;;11.93;5.38;;;20.00;99.90;;;;;;5050440;28;20045;-80
2023/06/11 00:08:13;;;;;;;7.18;4.93;;;20.00;99.90;;;;;;5049994;28;20060;-81
2023/06/11 00:10:39;;;;;;;8.68;4.80;;;20.00;99.90;;;;;;5033899;28;20026;-80
2023/06/11 00:13:05;;;;;;;8.38;4.63;;;19.90;99.90;;;;;;5050632;28;20049;-81
2023/06/11 00:15:30;;;;;;;7.85;5.28;;;19.90;99.90;;;;;;5050332;28;20037;-81
2023/06/11 00:17:56;;;;;;;8.52;5.40;;;19.90;99.90;;;;;;5033596;28;20118;-81
2023/06/11 00:20:22;;;;;;;9.07;4.63;;;19.90;99.90;;;;;;5050239;28;20131;-81
2023/06/11 00:22:48;;;;;;;6.95;5.20;;;19.90;99.90;;;;;;5033179;28;20051;-81
2023/06/11 00:25:13;;;;;;;9.60;5.15;;;19.90;99.90;;;;;;5049291;28;20045;-80
2023/06/11 00:27:39;;;;;;;6.55;4.38;;;19.90;99.90;;;;;;5033771;28;20046;-80
2023/06/11 00:30:06;;;;;;;10.93;5.50;;;19.80;99.90;;;;;;5034480;28;20037;-80
2023/06/11 00:32:33;;;;;;;8.65;5.35;;;19.90;99.90;;;;;;5033079;28;20116;-81
2023/06/11 00:34:59;;;;;;;8.55;5.55;;;19.80;99.90;;;;;;5033360;28;20060;-81
2023/06/11 00:37:25;;;;;;;10.73;5.68;;;19.80;99.90;;;;;;5033356;28;20045;-80
2023/06/11 00:39:51;;;;;;;12.10;5.18;;;19.80;99.90;;;;;;5049848;28;20388;-80
2023/06/11 00:42:19;;;;;;;7.55;5.07;;;19.80;99.90;;;;;;5049660;28;20116;-80
2023/06/11 00:44:46;;;;;;;9.02;5.30;;;19.70;99.90;;;;;;5033388;28;20181;-81
2023/06/11 00:47:16;;;;;;;7.72;5.45;;;19.70;99.90;;;;;;5030059;28;20046;-80
2023/06/11 00:49:43;;;;;;;8.43;5.70;;;19.80;99.90;;;;;;5032800;28;20072;-81
2023/06/11 00:52:13;;;;;;;7.43;5.18;;;19.70;99.90;;;;;;5049783;28;20386;-80
2023/06/11 00:54:39;;;;;;;7.45;5.40;;;19.70;99.90;;;;;;5049781;28;20115;-81
2023/06/11 00:57:06;;;;;;;8.13;6.05;;;19.70;99.90;;;;;;5026385;28;20056;-81
2023/06/11 00:59:34;;;;;;;8.88;5.20;;;19.70;99.90;;;;;;5049709;28;20104;-80
2023/06/11 01:02:17;;;;;;;9.55;5.88;;;19.60;99.90;;;;;;5032935;28;20068;-81
2023/06/11 01:04:45;;;;;;;7.65;5.47;;;19.50;99.90;;;;;;5032573;28;20056;-80
2023/06/11 01:07:15;;;;;;;7.03;5.38;;;19.50;99.90;;;;;;5033038;28;20033;-80
2023/06/11 01:09:42;;;;;;;7.07;5.43;;;19.50;99.90;;;;;;5032710;28;20033;-80
2023/06/11 01:12:08;;;;;;;9.35;5.80;;;19.40;99.90;;;;;;5032440;28;20047;-81
2023/06/11 01:14:34;;;;;;;7.72;4.97;;;19.40;99.90;;;;;;5032434;28;20045;-80
2023/06/11 01:17:05;;;;;;;8.80;5.53;;;19.30;99.90;;;;;;5032998;28;20045;-81
2023/06/11 01:19:39;;;;;;;10.10;6.18;;;19.30;99.90;;;;;;5032760;28;20042;-81
2023/06/11 01:22:16;;;;;;;9.77;5.97;;;19.30;99.90;;;;;;5032790;28;20075;-81
2023/06/11 01:24:54;;;;;;;7.85;5.90;;;19.30;99.90;;;;;;5024384;28;20061;-81
2023/06/11 01:27:33;;;;;;;7.78;5.15;;;19.20;99.90;;;;;;5032381;28;20041;-81
2023/06/11 01:30:03;;;;;;;6.28;5.68;;;19.20;99.90;;;;;;5048986;28;20037;-81
2023/06/11 01:32:28;;;;;;;8.23;6.18;;;19.10;99.90;;;;;;5032140;28;20069;-80
2023/06/11 01:35:04;;;;;;;7.15;5.82;;;19.00;99.90;;;;;;5032188;28;20071;-80
2023/06/11 01:37:32;;;;;;;7.25;5.65;;;18.90;99.90;;;;;;5048163;28;20041;-80
2023/06/11 01:39:58;;;;;;;7.60;5.63;;;18.90;99.90;;;;;;5048430;28;20064;-80
2023/06/11 01:42:23;;;;;;;8.77;6.18;;;18.80;99.90;;;;;;5032026;28;20033;-80
2023/06/11 01:44:49;;;;;;;8.55;5.88;;;18.80;99.90;;;;;;5048909;28;20037;-80
2023/06/11 01:47:15;;;;;;;6.38;5.63;;;18.80;99.90;;;;;;5048750;28;20114;-80
2023/06/11 01:49:41;;;;;;;8.05;5.78;;;18.70;99.90;;;;;;5032243;28;20041;-81
2023/06/11 01:52:06;;;;;;;8.60;6.40;;;18.60;99.90;;;;;;5032026;28;20041;-80
2023/06/11 01:54:32;;;;;;;9.00;6.32;;;18.60;99.90;;;;;;5048459;28;20604;-80
2023/06/11 01:56:57;;;;;;;8.20;6.18;;;18.60;99.90;;;;;;5048301;28;20417;-80
2023/06/11 01:59:23;;;;;;;6.78;5.95;;;18.50;99.90;;;;;;5048911;28;20038;-79
2023/06/11 02:01:53;;;;;;;7.03;6.13;;;18.50;99.90;;;;;;5031538;28;20037;-80
2023/06/11 02:04:22;;;;;;;7.32;6.45;;;18.50;99.90;;;;;;5028944;28;20124;-80
2023/06/11 02:06:48;;;;;;;7.00;6.30;;;18.50;99.90;;;;;;5048497;28;20072;-80
2023/06/11 02:09:14;;;;;;;8.85;6.57;;;18.40;99.90;;;;;;5048066;28;20037;-80
2023/06/11 02:11:40;;;;;;;7.78;6.28;;;18.40;99.90;;;;;;5031446;28;20516;-80
2023/06/11 02:14:05;;;;;;;8.77;7.05;;;18.40;99.90;;;;;;5048658;28;20129;-79
2023/06/11 02:16:31;;;;;;;8.77;6.55;;;18.40;99.90;;;;;;5048435;28;20045;-80
2023/06/11 02:18:56;;;;;;;9.10;7.28;;;18.40;99.90;;;;;;5047974;28;20056;-80
2023/06/11 02:21:22;;;;;;;10.90;7.47;;;18.30;99.90;;;;;;5045903;28;20405;-80
2023/06/11 02:23:48;;;;;;;8.60;7.15;;;18.30;99.90;;;;;;5031578;28;20038;-79
2023/06/11 02:26:14;;;;;;;9.27;7.55;;;18.30;99.90;;;;;;5031312;28;20045;-80
2023/06/11 02:28:39;;;;;;;10.43;7.88;;;18.30;99.90;;;;;;5031148;28;20488;-80
2023/06/11 02:31:05;;;;;;;8.35;7.55;;;18.20;99.90;;;;;;5030968;28;20520;-79
2023/06/11 02:33:30;;;;;;;8.65;7.13;;;18.30;99.90;;;;;;5047816;28;20091;-79
2023/06/11 02:35:56;;;;;;;8.70;7.28;;;18.20;99.90;;;;;;5047374;28;20029;-79
2023/06/11 02:38:21;;;;;;;11.65;7.72;;;18.20;99.90;;;;;;5047501;28;20501;-80
2023/06/11 02:40:47;;;;;;;11.98;7.78;;;18.20;99.90;;;;;;5047688;28;20124;-80
2023/06/11 02:43:12;;;;;;;11.93;7.95;;;18.10;99.90;;;;;;5031340;28;20411;-80
2023/06/11 02:45:38;;;;;;;8.65;7.45;;;18.10;99.90;;;;;;5030889;28;20493;-79
2023/06/11 02:48:03;;;;;;;11.23;8.00;;;18.00;99.90;;;;;;5048473;28;20105;-81
2023/06/11 02:50:29;;;;;;;9.77;8.18;;;18.00;99.90;;;;;;5051304;28;20428;-79
2023/06/11 02:52:56;;;;;;;12.85;8.38;;;18.00;99.90;;;;;;5051099;28;20076;-79
2023/06/11 02:55:21;;;;;;;9.90;8.15;;;17.90;99.90;;;;;;5051170;28;20033;-79
2023/06/11 02:57:47;;;;;;;9.30;7.85;;;17.90;99.90;;;;;;5051171;28;20095;-79
2023/06/11 03:00:12;;;;;;;11.13;8.02;;;17.90;99.90;;;;;;5034519;28;20110;-79
2023/06/11 03:02:39;;;;;;;11.52;8.23;;;17.90;99.90;;;;;;5050599;28;20500;-78
2023/06/11 03:05:05;;;;;;;9.02;8.13;;;17.90;99.90;;;;;;5018082;28;20049;-79
2023/06/11 03:07:30;;;;;;;8.75;7.82;;;17.80;99.90;;;;;;5034063;28;20044;-79
2023/06/11 03:09:56;;;;;;;12.40;8.50;;;17.80;99.90;;;;;;5034511;28;20527;-79
2023/06/11 03:12:21;;;;;;;10.57;8.07;;;17.80;99.90;;;;;;5050959;28;20120;-79
2023/06/11 03:14:47;;;;;;;11.20;8.45;;;17.80;99.90;;;;;;5034868;28;20034;-79
2023/06/11 03:17:12;;;;;;;9.63;7.97;;;17.80;99.90;;;;;;5034350;28;20045;-79
2023/06/11 03:19:38;;;;;;;9.88;8.02;;;17.70;99.90;;;;;;5034691;28;20039;-79
2023/06/11 03:22:04;;;;;;;9.38;8.30;;;17.80;99.90;;;;;;5033750;28;20551;-79
2023/06/11 03:24:29;;;;;;;12.52;8.27;;;17.70;99.90;;;;;;5051107;28;20053;-80
2023/06/11 03:26:55;;;;;;;9.18;8.27;;;17.70;99.90;;;;;;5034233;28;20048;-79
2023/06/11 03:29:20;;;;;;;9.52;8.15;;;17.70;99.90;;;;;;5050438;28;20037;-79
2023/06/11 03:31:46;;;;;;;9.60;8.60;;;17.70;99.90;;;;;;5033662;28;20056;-79
2023/06/11 03:34:13;;;;;;;10.93;8.18;;;17.70;99.90;;;;;;5050724;28;20052;-80
2023/06/11 03:36:38;;;;;;;9.20;8.25;;;17.60;99.90;;;;;;5034134;28;20416;-80
2023/06/11 03:39:04;;;;;;;13.23;8.77;;;17.60;99.90;;;;;;5050739;28;20663;-79
2023/06/11 03:41:29;;;;;;;9.90;8.65;;;17.60;99.90;;;;;;5050308;28;20065;-79
2023/06/11 03:43:55;;;;;;;10.07;9.07;;;17.60;99.90;;;;;;5050593;28;20037;-78
2023/06/11 03:46:21;;;;;;;9.73;8.73;;;17.60;99.90;;;;;;5033279;28;20033;-79
2023/06/11 03:48:47;;;;;;;10.30;8.00;;;17.60;99.90;;;;;;5050215;28;20038;-78
2023/06/11 03:51:13;;;;;;;12.50;8.32;;;17.60;99.90;;;;;;5050172;28;20460;-79
2023/06/11 03:53:39;;;;;;;10.18;8.75;;;17.60;99.90;;;;;;5049412;28;20038;-79
2023/06/11 03:56:04;;;;;;;9.98;8.93;;;17.60;99.90;;;;;;5049946;28;20060;-79
2023/06/11 03:58:30;;;;;;;10.75;8.73;;;17.70;99.90;;;;;;5049816;28;20414;-79
2023/06/11 04:00:55;;;;;;;10.70;8.85;;;17.70;99.90;;;;;;5047911;28;20049;-78
2023/06/11 04:03:21;;;;;;;10.38;9.25;;;17.70;99.90;;;;;;5049007;28;20045;-76
2023/06/11 04:05:47;;;;;;;9.32;8.20;;;17.70;99.90;;;;;;5032245;28;20041;-79
2023/06/11 04:08:12;;;;;;;9.85;8.68;;;17.70;99.90;;;;;;5049733;28;20042;-79
2023/06/11 04:10:38;;;;;;;10.40;8.65;;;17.70;99.90;;;;;;5049085;28;20037;-78
2023/06/11 04:13:03;;;;;;;10.43;8.85;;;17.80;99.90;;;;;;5032073;28;20091;-78
2023/06/11 04:15:30;;;;;;;12.52;9.20;;;17.80;99.90;;;;;;5032020;28;20045;-77
2023/06/11 04:17:55;;;;;;;10.30;9.13;;;17.90;99.90;;;;;;5032191;28;20033;-78
2023/06/11 04:20:21;;;;;;;10.85;9.10;;;17.90;99.90;;;;;;5032035;28;20099;-76
2023/06/11 04:22:47;;;;;;;10.80;9.07;;;18.00;99.90;;;;;;5048223;28;20033;-77
2023/06/11 04:25:12;;;;;;;10.43;8.80;;;18.00;99.90;;;;;;5048620;28;20095;-78
2023/06/11 04:27:38;;;;;;;9.90;8.82;;;18.10;99.90;;;;;;5048204;28;20053;-78
2023/06/11 04:30:06;;;;;;;12.65;8.88;;;18.10;99.90;;;;;;5031351;28;20041;-78
2023/06/11 04:32:34;;;;;;;9.98;8.98;;;18.20;99.90;;;;;;5031273;28;20045;-77
2023/06/11 04:35:02;;;;;;;11.30;9.80;;;18.20;99.90;;;;;;5031130;28;20076;-78
2023/06/11 04:37:29;;;;;;;12.32;9.63;;;18.30;99.90;;;;;;5048097;28;20091;-77
2023/06/11 04:39:56;;;;;;;10.32;9.10;;;18.50;99.90;;;;;;5048100;28;20037;-78
2023/06/11 04:42:24;;;;;;;11.13;9.90;;;18.40;99.90;;;;;;5048142;28;20558;-78
2023/06/11 04:44:50;;;;;;;11.10;9.18;;;18.50;99.90;;;;;;5048070;28;20041;-76
2023/06/11 04:47:16;;;;;;;11.63;9.23;;;18.50;99.90;;;;;;5048032;28;20528;-77
2023/06/11 04:49:43;;;;;;;11.18;9.43;;;18.60;99.90;;;;;;5031779;28;20029;-79
2023/06/11 04:52:09;;;;;;;10.32;9.23;;;18.70;99.90;;;;;;5047562;28;20045;-79
2023/06/11 04:54:34;;;;;;;10.48;8.55;;;18.70;99.90;;;;;;5031654;28;20496;-79
2023/06/11 04:57:00;;;;;;;13.23;9.85;;;18.80;99.90;;;;;;5047841;28;20041;-78
2023/06/11 04:59:26;;;;;;;11.38;8.70;;;19.00;99.90;;;;;;5031175;28;20045;-79
2023/06/11 05:01:53;;;;;;;11.68;8.98;;;19.00;99.90;;;;;;5032153;28;20064;-77
2023/06/11 05:04:19;;;;;;;10.10;9.10;;;19.10;99.90;;;;;;5030921;28;20045;-79
2023/06/11 05:06:45;;;;;;;12.50;9.13;;;19.10;99.90;;;;;;5031492;28;20060;-79
2023/06/11 05:09:14;;;;;;;9.60;8.60;;;19.20;99.90;;;;;;5047657;28;20041;-79
2023/06/11 05:11:43;;;;;;;11.20;9.20;;;19.30;99.90;;;;;;5046849;28;20034;-79
2023/06/11 05:14:09;;;;;;;11.05;9.48;;;19.40;99.90;;;;;;5047287;28;20505;-76
2023/06/11 05:16:35;;;;;;;11.55;8.75;;;19.40;99.90;;;;;;5047604;28;20045;-79
2023/06/11 05:19:01;;;;;;;11.80;8.68;;;19.60;99.90;;;;;;5047353;28;20041;-76
2023/06/11 05:21:27;;;;;;;12.73;8.98;;;19.60;99.90;;;;;;5031649;28;20038;-77
2023/06/11 05:23:53;;;;;;;11.45;9.18;;;19.70;99.90;;;;;;5047538;28;20132;-79
2023/06/11 05:26:31;;;;;;;13.32;9.25;;;19.80;99.90;;;;;;5047296;28;20045;-78
2023/06/11 05:28:57;;;;;;;11.02;8.85;;;19.90;99.90;;;;;;5030450;28;20041;-79
2023/06/11 05:31:23;;;;;;;10.68;8.10;;;20.00;99.90;;;;;;5030100;28;20524;-79
2023/06/11 05:33:49;;;;;;;9.95;8.95;;;20.00;99.90;;;;;;5047433;28;20033;-76
2023/06/11 05:36:16;;;;;;;12.80;9.27;;;20.10;99.90;;;;;;5047247;28;20033;-76
2023/06/11 05:38:43;;;;;;;10.13;9.10;;;20.20;99.90;;;;;;5030504;28;20360;-77
2023/06/11 05:41:08;;;;;;;10.88;8.43;;;20.30;99.90;;;;;;5030173;28;20095;-79
2023/06/11 05:43:35;;;;;;;10.38;8.27;;;20.30;99.90;;;;;;5046891;28;20041;-80
2023/06/11 05:46:01;;;;;;;10.15;8.25;;;20.40;99.90;;;;;;5031600;28;20053;-79
2023/06/11 05:48:27;;;;;;;12.50;8.88;;;20.50;99.90;;;;;;5030215;28;20157;-78
2023/06/11 05:50:52;;;;;;;9.70;8.70;;;20.60;99.90;;;;;;5029834;28;20030;-79
2023/06/11 05:53:18;;;;;;;10.77;8.82;;;20.70;99.90;;;;;;5046817;28;20080;-79
2023/06/11 05:55:44;;;;;;;10.07;8.32;;;20.80;99.90;;;;;;5022852;28;20026;-79
2023/06/11 05:58:09;;;;;;;9.77;8.73;;;20.80;99.90;;;;;;5029815;28;20107;-79
2023/06/11 06:00:35;;;;;;;13.30;9.18;;;20.90;99.90;;;;;;5029683;28;20045;-80
2023/06/11 06:03:03;;;;;;;11.40;8.57;;;21.00;99.90;;;;;;5029839;28;20401;-80
2023/06/11 06:05:29;;;;;;;10.95;8.52;;;21.10;99.90;;;;;;5030191;28;20041;-79
2023/06/11 06:07:54;;;;;;;11.35;8.40;;;21.20;99.90;;;;;;5046677;28;20037;-77
2023/06/11 06:10:20;;;;;;;11.68;9.05;;;21.30;99.90;;;;;;5030056;28;20038;-80
2023/06/11 06:12:45;;;;;;;12.05;8.45;;;21.40;99.90;;;;;;5046441;28;20040;-79
2023/06/11 06:15:11;;;;;;;10.48;8.10;;;21.50;99.90;;;;;;5046508;28;20037;-80
2023/06/11 06:17:36;;;;;;;9.13;8.20;;;21.50;99.90;;;;;;5046611;28;20420;-77
2023/06/11 06:20:02;;;;;;;9.60;8.60;;;21.60;99.90;;;;;;5030264;28;20064;-79
2023/06/11 06:22:28;;;;;;;9.35;8.13;;;21.70;99.90;;;;;;5045764;28;20053;-79
2023/06/11 06:24:53;;;;;;;9.27;8.13;;;21.70;99.90;;;;;;5030322;28;20440;-81
2023/06/11 06:27:19;;;;;;;9.18;8.27;;;21.80;99.90;;;;;;5046582;28;20049;-79
2023/06/11 06:29:44;;;;;;;10.00;8.52;;;21.90;99.90;;;;;;5029964;28;20042;-78
2023/06/11 06:32:10;;;;;;;9.50;8.05;;;22.00;99.90;;;;;;5029471;28;20088;-80
2023/06/11 06:34:35;;;;;;;9.52;8.52;;;22.00;99.90;;;;;;5029623;28;20503;-78
2023/06/11 06:37:01;;;;;;;11.07;8.63;;;22.10;99.90;;;;;;5046244;28;20048;-79
2023/06/11 06:39:27;;;;;;;9.15;8.07;;;22.20;99.90;;;;;;5029785;28;20491;-78
2023/06/11 06:41:53;;;;;;;10.55;8.50;;;22.30;99.90;;;;;;5045090;28;20041;-80
2023/06/11 06:44:18;;;;;;;9.10;8.20;;;22.40;99.90;;;;;;5030743;28;20056;-79
2023/06/11 06:46:44;;;;;;;11.63;8.45;;;22.50;99.90;;;;;;5030859;28;20041;-79
2023/06/11 06:49:09;;;;;;;12.07;9.23;;;22.60;99.90;;;;;;5045063;28;20480;-78
2023/06/11 06:51:37;;;;;;;10.07;8.05;;;22.70;99.90;;;;;;5045878;28;20461;-77
2023/06/11 06:54:03;;;;;;;11.27;8.27;;;22.80;99.90;;;;;;5029197;28;20082;-77
2023/06/11 06:56:28;;;;;;;9.23;8.00;;;22.90;99.90;;;;;;5029130;28;20124;-77
2023/06/11 06:58:54;;;;;;;12.40;8.73;;;23.00;99.90;;;;;;5029003;28;20040;-76
2023/06/11 07:01:19;;;;;;;14.05;8.18;;;23.00;99.90;;;;;;5028836;28;20045;-78
2023/06/11 07:03:45;;;;;;;8.15;7.35;;;23.20;99.90;;;;;;5029298;28;20421;-77
2023/06/11 07:06:10;;;;;;;12.13;8.18;;;23.30;99.90;;;;;;5029354;28;20522;-77
2023/06/11 07:08:38;;;;;;;11.07;8.55;;;23.40;99.90;;;;;;5029035;28;20053;-78
2023/06/11 07:11:04;;;;;;;11.30;8.05;;;23.40;99.90;;;;;;5045702;28;20037;-76
2023/06/11 07:13:29;;;;;;;11.85;8.13;;;23.50;99.90;;;;;;5026779;28;20128;-76
2023/06/11 07:15:55;;;;;;;9.73;7.97;;;23.50;99.90;;;;;;5029334;28;20045;-77
2023/06/11 07:18:21;;;;;;;9.45;8.35;;;23.60;99.90;;;;;;5029044;28;20073;-76
2023/06/11 07:20:47;;;;;;;9.93;8.20;;;23.70;99.90;;;;;;5029259;28;20464;-77
2023/06/11 07:23:13;;;;;;;8.70;7.50;;;23.80;99.90;;;;;;5029086;28;20079;-78
2023/06/11 07:25:39;;;;;;;8.77;7.93;;;24.00;99.90;;;;;;5029112;28;20120;-77
2023/06/11 07:28:05;;;;;;;10.45;7.85;;;24.10;99.90;;;;;;5028900;28;20037;-78
2023/06/11 07:30:32;;;;;;;9.52;8.10;;;24.10;99.90;;;;;;5028631;28;20147;-78
2023/06/11 07:32:59;;;;;;;9.63;8.60;;;24.20;99.90;;;;;;5028181;28;20068;-77
2023/06/11 07:35:26;;;;;;;9.70;7.70;;;24.30;99.90;;;;;;5045259;28;20045;-78
2023/06/11 07:37:52;;;;;;;9.10;8.00;;;24.40;99.90;;;;;;5048794;28;20038;-79
2023/06/11 07:40:18;;;;;;;14.27;8.52;;;24.50;99.90;;;;;;5032103;28;20176;-76
2023/06/11 07:42:45;;;;;;;9.55;7.68;;;24.60;99.90;;;;;;5032317;28;20128;-79
2023/06/11 07:45:11;;;;;;;10.60;7.82;;;24.70;99.90;;;;;;5032443;28;20033;-78
2023/06/11 07:47:36;;;;;;;9.30;7.85;;;24.70;99.90;;;;;;5030667;28;20041;-79
2023/06/11 07:50:06;;;;;;;11.05;7.45;;;24.90;99.90;;;;;;5032255;28;20087;-77
2023/06/11 07:52:31;;;;;;;8.63;7.68;;;25.00;99.90;;;;;;5048429;28;20116;-79
2023/06/11 07:54:57;;;;;;;9.05;7.40;;;25.10;99.90;;;;;;5048563;28;20179;-78
2023/06/11 07:57:23;;;;;;;8.82;7.93;;;25.30;99.90;;;;;;5032352;28;20038;-76
2023/06/11 07:59:48;;;;;;;11.52;7.70;;;25.40;99.90;;;;;;5032095;28;20120;-79
2023/06/11 08:02:14;;;;;;;8.85;7.95;;;25.40;99.90;;;;;;5048210;28;20045;-77
2023/06/11 08:04:40;;;;;;;8.40;7.30;;;25.60;99.90;;;;;;5032166;28;20077;-79
2023/06/11 08:07:06;;;;;;;10.50;8.00;;;25.70;99.90;;;;;;5032202;28;20177;-76
2023/06/11 08:09:36;;;;;;;9.80;7.25;;;25.80;99.90;;;;;;5031870;28;20038;-78
2023/06/11 08:12:06;;;;;;;9.70;7.55;;;25.80;99.90;;;;;;5031294;28;20488;-77
2023/06/11 08:14:33;;;;;;;12.70;8.07;;;25.90;99.90;;;;;;5026159;28;20518;-75
2023/06/11 08:16:59;;;;;;;8.45;7.50;;;26.00;99.90;;;;;;5031655;28;20037;-76
2023/06/11 08:19:24;;;;;;;9.65;7.03;;;26.10;99.90;;;;;;5031598;28;20048;-78
2023/06/11 08:21:50;;;;;;;8.80;7.38;;;26.10;99.90;;;;;;5048148;28;20033;-78
2023/06/11 08:24:16;;;;;;;9.50;7.70;;;26.20;99.90;;;;;;5047820;28;20539;-77
2023/06/11 08:26:42;;;;;;;8.50;7.40;;;26.20;99.90;;;;;;5031225;28;20112;-76
2023/06/11 08:29:08;;;;;;;9.32;7.68;;;26.40;99.90;;;;;;5048169;28;20461;-77
2023/06/11 08:31:33;;;;;;;8.60;7.00;;;26.40;99.90;;;;;;5030423;28;20428;-78
2023/06/11 08:33:59;;;;;;;7.80;6.90;;;26.40;99.90;;;;;;5047617;28;20045;-78
2023/06/11 08:36:25;;;;;;;7.88;7.10;;;26.50;99.90;;;;;;5031252;28;20090;-76
2023/06/11 08:38:51;;;;;;;8.63;7.47;;;26.60;99.90;;;;;;5014868;28;20463;-76
2023/06/11 08:41:17;;;;;;;8.80;7.25;;;26.70;99.90;;;;;;5047577;28;20124;-78
2023/06/11 08:43:43;;;;;;;7.70;6.82;;;26.70;99.90;;;;;;5031133;28;20522;-78
2023/06/11 08:46:14;;;;;;;7.85;7.13;;;26.80;99.90;;;;;;5047322;28;20037;-78
2023/06/11 08:48:41;;;;;;;10.73;7.60;;;26.90;99.90;;;;;;5030946;28;20094;-78
2023/06/11 08:51:10;;;;;;;8.07;7.25;;;26.90;99.90;;;;;;5030666;28;20045;-76
2023/06/11 08:53:36;;;;;;;7.78;6.95;;;26.90;99.90;;;;;;5031050;28;20088;-78
2023/06/11 08:56:02;;;;;;;7.57;6.88;;;26.90;99.90;;;;;;5030958;28;20037;-78
2023/06/11 08:58:33;;;;;;;8.07;7.28;;;26.80;99.90;;;;;;5047741;28;20424;-75
2023/06/11 09:01:07;;;;;;;10.48;7.10;;;26.90;99.90;;;;;;5030550;28;20037;-78
2023/06/11 09:03:32;;;;;;;7.65;6.85;;;26.90;99.90;;;;;;5032014;28;20455;-78
2023/06/11 09:05:59;;;;;;;7.75;6.97;;;27.00;99.90;;;;;;5047280;28;20038;-76
2023/06/11 09:08:24;;;;;;;9.93;7.70;;;27.00;99.90;;;;;;5047160;28;20053;-77
2023/06/11 09:10:51;;;;;;;10.80;6.95;;;27.10;99.90;;;;;;5047207;28;20038;-76
2023/06/11 09:13:24;;;;;;;8.80;6.82;;;27.10;99.90;;;;;;5030562;28;20048;-78
2023/06/11 09:15:57;;;;;;;9.93;8.02;;;27.10;99.90;;;;;;5030720;28;20559;-76
2023/06/11 09:18:25;;;;;;;7.80;6.95;;;27.20;99.90;;;;;;5030333;28;20030;-77
2023/06/11 09:20:56;;;;;;;11.48;6.70;;;27.20;99.90;;;;;;5030290;28;20207;-77
2023/06/11 09:23:28;;;;;;;8.00;7.20;;;27.30;99.90;;;;;;5030452;28;20115;-76
2023/06/11 09:25:54;;;;;;;9.00;7.20;;;27.30;99.90;;;;;;5046942;28;20124;-78
2023/06/11 09:28:20;;;;;;;7.00;6.30;;;27.50;99.90;;;;;;5030058;28;20125;-78
2023/06/11 09:30:56;;;;;;;8.15;6.88;;;27.60;99.90;;;;;;5030057;28;20041;-78
2023/06/11 09:33:23;;;;;;;7.60;6.50;;;27.70;99.90;;;;;;5046534;28;20030;-76
2023/06/11 09:35:49;;;;;;;7.07;6.38;;;27.70;99.90;;;;;;5030163;28;20040;-77
2023/06/11 09:38:19;;;;;;;8.35;6.72;;;27.80;99.90;;;;;;5030493;28;20378;-77
2023/06/11 09:40:56;;;;;;;9.30;6.93;;;27.90;99.90;;;;;;5030140;28;20033;-77
2023/06/11 09:43:26;;;;;;;7.97;6.68;;;27.90;99.90;;;;;;5029895;28;20215;-76
2023/06/11 09:45:54;;;;;;;7.53;6.70;;;27.90;99.90;;;;;;5030153;28;20048;-77
2023/06/11 09:48:21;;;;;;;7.60;6.15;;;28.00;99.90;;;;;;5029782;28;20042;-79
2023/06/11 09:50:51;;;;;;;7.68;6.30;;;28.00;99.90;;;;;;5030165;28;20030;-77
2023/06/11 09:53:22;;;;;;;7.85;6.70;;;28.10;99.90;;;;;;5029983;28;20037;-77
2023/06/11 09:55:51;;;;;;;8.40;6.72;;;28.10;99.90;;;;;;5029716;28;20120;-77
2023/06/11 09:58:21;;;;;;;7.22;6.32;;;28.20;99.90;;;;;;5029126;28;20124;-76
2023/06/11 10:00:48;;;;;;;8.35;6.03;;;28.20;99.90;;;;;;5029757;28;20092;-76
2023/06/11 10:03:13;;;;;;;7.65;6.30;;;28.40;99.90;;;;;;5029734;28;20041;-76
2023/06/11 10:05:39;;;;;;;7.18;6.43;;;28.40;99.90;;;;;;5027335;28;20160;-77
2023/06/11 10:08:12;;;;;;;6.68;6.07;;;28.40;99.90;;;;;;5019452;28;20044;-78
2023/06/11 10:10:44;;;;;;;7.13;5.80;;;28.50;99.90;;;;;;5029391;28;20060;-77
2023/06/11 10:13:10;;;;;;;7.32;5.90;;;28.60;99.90;;;;;;5029147;28;20044;-77
2023/06/11 10:15:36;;;;;;;7.50;6.10;;;28.70;99.90;;;;;;5029483;28;20041;-76
2023/06/11 10:18:11;;;;;;;9.32;5.80;;;28.80;99.90;;;;;;5046500;28;20424;-77
2023/06/11 10:20:37;;;;;;;7.30;6.28;;;28.80;99.90;;;;;;5029825;28;20385;-77
2023/06/11 10:23:10;;;;;;;7.15;6.00;;;28.90;99.90;;;;;;5045643;28;20049;-75
2023/06/11 10:25:40;;;;;;;6.80;5.45;;;29.00;99.90;;;;;;5029738;28;20502;-76
2023/06/11 10:28:08;;;;;;;6.60;5.88;;;29.10;99.90;;;;;;5029440;28;20528;-77
2023/06/11 10:30:34;;;;;;;9.38;6.38;;;29.10;99.90;;;;;;5029590;28;20038;-77
2023/06/11 10:33:00;;;;;;;10.73;6.25;;;29.20;99.90;;;;;;5029255;28;20037;-76
2023/06/11 10:35:32;;;;;;;7.40;5.80;;;29.20;99.90;;;;;;5029490;28;20034;-77
2023/06/11 10:38:03;;;;;;;5.88;5.28;;;29.30;99.90;;;;;;5029771;28;20146;-76
2023/06/11 10:40:36;;;;;;;6.57;5.60;;;29.40;99.90;;;;;;5028932;28;20037;-76
2023/06/11 10:43:11;;;;;;;;;;;29.40;99.00;;;;;;5028627;28;20037;-77
2023/06/11 10:45:38;;;;;;;6.53;5.22;;;29.50;99.70;;;;;;5027281;28;19917;-77
2023/06/11 10:48:04;;;;;;;6.05;5.45;;;29.60;99.40;;;;;;5043977;28;20045;-77
2023/06/11 10:50:31;;;;;;;8.10;5.40;;;29.70;99.00;;;;;;5027456;28;20471;-77
2023/06/11 10:53:13;;;;;;;7.10;5.38;;;29.80;99.00;;;;;;5027373;28;20464;-77
2023/06/11 10:55:47;;;;;;;9.15;5.40;;;29.80;98.60;;;;;;5029405;28;20046;-76
2023/06/11 10:58:22;;;;;;;6.78;5.68;;;29.90;98.40;;;;;;5044816;28;20048;-76
2023/06/11 11:00:52;;;;;;;6.90;5.30;;;30.00;98.00;;;;;;5045630;28;20099;-77
2023/06/11 11:03:21;;;;;;;10.07;5.50;;;30.10;98.60;;;;;;5030604;28;20041;-76
2023/06/11 11:05:49;;;;;;;6.20;5.30;;;30.20;98.30;;;;;;5029045;28;20108;-77
2023/06/11 11:08:15;;;;;;;6.38;5.38;;;30.30;97.80;;;;;;5045721;28;20037;-77
2023/06/11 11:10:41;;;;;;;5.57;5.07;;;30.40;97.70;;;;;;5032380;28;20397;-77
2023/06/11 11:13:07;;;;;;;7.75;4.57;;;30.50;97.40;;;;;;5032681;28;20049;-76
2023/06/11 11:15:33;;;;;;;7.38;4.70;;;30.50;96.90;;;;;;5032648;28;20088;-78
2023/06/11 11:17:59;;;;;;;6.95;4.53;;;30.60;96.60;;;;;;5029353;28;20128;-78
2023/06/11 11:20:24;;;;;;;5.32;4.82;;;30.60;96.70;;;;;;5032593;28;20129;-76
2023/06/11 11:22:53;;;;;;;5.95;4.85;;;30.80;96.40;;;;;;5032751;28;20639;-76
2023/06/11 11:25:21;;;;;;;6.43;4.60;;;31.00;96.00;;;;;;5030711;28;20412;-79
2023/06/11 11:27:47;;;;;;;6.10;4.97;;;31.10;95.30;;;;;;5048148;28;20116;-78
2023/06/11 11:30:14;;;;;;;7.38;4.57;;;31.10;94.40;;;;;;5032447;28;20037;-76
2023/06/11 11:32:40;;;;;;;6.43;4.72;;;31.30;94.70;;;;;;5048251;28;20485;-78
2023/06/11 11:35:07;;;;;;;6.63;4.60;;;31.30;94.20;;;;;;5016106;28;20048;-79
2023/06/11 11:37:33;;;;;;;5.68;4.70;;;31.30;93.00;;;;;;5029485;28;20038;-77
2023/06/11 11:40:08;;;;;;;5.10;4.60;;;31.50;93.50;;;;;;5048846;28;20497;-77
2023/06/11 11:42:51;;;;;;;5.70;4.50;;;31.70;93.30;;;;;;5030542;28;20461;-77
2023/06/11 11:45:17;;;;;;;7.80;4.63;;;31.90;93.10;;;;;;5032074;28;20037;-77
2023/06/11 11:47:51;;;;;;;5.47;4.00;;;32.00;92.90;;;;;;5047699;28;20509;-76
2023/06/11 11:50:21;;;;;;;6.07;5.05;;;32.10;92.30;;;;;;5032121;28;20048;-76
2023/06/11 11:53:02;;;;;;;5.38;4.60;;;32.30;92.20;;;;;;5031910;28;20065;-77
2023/06/11 11:55:28;;;;;;;6.22;4.28;;;32.40;92.30;;;;;;5032165;28;20081;-75
2023/06/11 11:58:02;;;;;;;7.63;4.45;;;32.30;91.50;;;;;;5032268;28;20033;-77
2023/06/11 12:00:28;;;;;;;4.72;4.32;;;32.10;90.90;;;;;;5048947;28;20412;-79
2023/06/11 12:02:56;;;;;;;5.97;4.20;;;32.10;90.80;;;;;;5031671;28;20049;-78
2023/06/11 12:05:26;;;;;;;5.70;4.50;;;32.30;90.80;;;;;;5048475;28;20050;-80
2023/06/11 12:07:52;;;;;;;6.50;4.43;;;32.70;90.70;;;;;;5031883;28;20049;-77
2023/06/11 12:10:18;;;;;;;5.88;4.60;;;33.10;90.80;;;;;;5031879;28;20057;-77
2023/06/11 12:12:43;;;;;;;4.82;4.30;;;33.50;90.70;;;;;;5031617;28;20033;-79
2023/06/11 12:15:09;;;;;;;4.60;4.20;;;33.40;88.40;;;;;;5048341;28;20509;-79
2023/06/11 12:17:36;;;;;;;6.32;4.57;;;33.20;87.70;;;;;;5031597;28;20180;-79
2023/06/11 12:20:03;;;;;;;6.97;4.72;;;32.80;87.30;;;;;;5025812;28;20064;-79
2023/06/11 12:22:30;;;;;;;7.22;4.35;;;32.80;87.60;;;;;;5047180;28;20126;-77
2023/06/11 12:24:55;;;;;;;4.90;4.40;;;32.90;88.00;;;;;;5031455;28;20047;-79
2023/06/11 12:27:22;;;;;;;5.78;4.43;;;33.10;87.50;;;;;;5048048;28;20045;-76
2023/06/11 12:29:53;;;;;;;8.00;4.28;;;33.40;87.80;;;;;;5031309;28;20078;-79
2023/06/11 12:32:20;;;;;;;4.82;4.28;;;33.70;87.80;;;;;;5048004;28;20052;-77
2023/06/11 12:34:46;;;;;;;6.05;4.32;;;33.60;86.80;;;;;;5047936;28;20504;-77
2023/06/11 12:37:11;;;;;;;5.97;4.45;;;33.60;85.90;;;;;;5031731;28;20235;-79
2023/06/11 12:39:37;;;;;;;5.50;4.35;;;33.70;85.40;;;;;;5047843;28;20128;-77
2023/06/11 12:42:03;;;;;;;5.68;4.65;;;33.70;84.90;;;;;;5032339;28;20116;-80